GQPZ

Tazadit Airport

Zouérate, Mauritania
METAR GQPZ 151500Z 00000KT CAVOK 23/10 Q1021
Observed Flight Rules
Dec-15 @ 15:00 UTC (an hour ago) Visual Flight Rules
Visibility Clouds
10,000+ meters
  • Clear skies
Temperatures Readings
Current 23°C / 73°F
Dewpoint 10°C / 50°F
Humidity 44%
Altimeter 30.15" Hg
Pressure 1021 hPa
Elevation 344
METAR GQPZ 151500Z 00000KT CAVOK 23/10 Q1021
Observed Flight Rules
Dec-15 @ 15:00 UTC
(an hour ago)
VFR
Clouds
  • Clear skies
Temperature Dewpoint
23°C / 73°F 10°C / 50°F
Humidity Altimeter Pressure
44% 30.15" Hg 1021 hPa